Time;durP1;ratioP1;P1;durP2;ratioP2;P2;SDS_P1;SDS_P2;PMS_P1;PMS_P2;Temp;Humidity;BMP_temperature;BMP_pressure;BME280_temperature;BME280_humidity;BME280_pressure;Samples;Min_cycle;Max_cycle;Signal;HPM_P1;HPM_P2
2021/08/23 00:00:05;;;;;;;;;;;;;;;19.24;77.22;101703.50;5094709;28;834;-42
2021/08/23 00:02:30;;;;;;;;;;;;;;;19.23;77.01;101706.34;5095043;28;838;-44
2021/08/23 00:04:55;;;;;;;;;;;;;;;19.22;77.42;101718.16;5094865;28;1897;-44
2021/08/23 00:07:20;;;;;;;;;;;;;;;19.18;77.99;101717.56;5077034;28;874;-43
2021/08/23 00:09:47;;;;;;;;;;;;;;;19.21;77.71;101727.25;5095025;28;1009;-46
2021/08/23 00:12:12;;;;;;;;;;;;;;;19.23;77.43;101733.38;5095213;28;854;-46
2021/08/23 00:14:37;;;;;;;;;;;;;;;19.25;77.32;101728.69;5095819;28;1462;-46
2021/08/23 00:17:02;;;;;;;;;;;;;;;19.18;78.19;101733.75;5095087;28;1953;-45
2021/08/23 00:19:27;;;;;;;;;;;;;;;19.10;77.34;101730.88;5095142;28;961;-42
2021/08/23 00:22:00;;;;;;;;;;;;;;;19.16;78.23;101740.31;5095303;28;847;-43
2021/08/23 00:24:25;;;;;;;;;;;;;;;19.09;77.85;101737.28;5076775;28;1762;-46
2021/08/23 00:26:50;;;;;;;;;;;;;;;19.07;77.45;101742.81;5095088;28;1072;-44
2021/08/23 00:29:16;;;;;;;;;;;;;;;19.13;77.74;101740.56;5095058;28;823;-47
2021/08/23 00:31:41;;;;;;;;;;;;;;;19.15;77.64;101749.41;5094759;28;1984;-44
2021/08/23 00:34:06;;;;;;;;;;;;;;;19.07;77.92;101745.50;5095099;28;1523;-43
2021/08/23 00:36:31;;;;;;;;;;;;;;;19.00;77.81;101746.16;5095085;28;2012;-46
2021/08/23 00:38:56;;;;;;;;;;;;;;;18.99;78.34;101744.44;5095276;28;953;-43
2021/08/23 00:41:21;;;;;;;;;;;;;;;18.68;78.58;101747.06;5094969;28;863;-45
2021/08/23 00:43:46;;;;;;;;;;;;;;;18.82;78.69;101747.75;5095080;28;1869;-42
2021/08/23 00:46:11;;;;;;;;;;;;;;;18.89;77.83;101752.50;5095093;28;1008;-42
2021/08/23 00:48:36;;;;;;;;;;;;;;;19.01;77.35;101764.09;5094747;28;873;-43
2021/08/23 00:51:01;;;;;;;;;;;;;;;19.01;77.36;101769.50;5095185;28;1064;-41
2021/08/23 00:53:26;;;;;;;;;;;;;;;18.99;78.13;101766.06;5095169;28;1655;-47
2021/08/23 00:55:51;;;;;;;;;;;;;;;19.11;77.33;101769.56;5094202;28;1909;-44
2021/08/23 00:58:17;;;;;;;;;;;;;;;18.90;78.13;101773.13;5095083;28;1875;-44
2021/08/23 01:00:42;;;;;;;;;;;;;;;18.61;78.71;101769.34;5094964;28;957;-44
2021/08/23 01:03:07;;;;;;;;;;;;;;;18.65;77.96;101771.63;5094896;28;807;-44
2021/08/23 01:05:32;;;;;;;;;;;;;;;18.87;77.55;101776.06;5076868;28;1397;-43
2021/08/23 01:07:57;;;;;;;;;;;;;;;18.89;77.83;101771.41;5094876;28;846;-45
2021/08/23 01:10:22;;;;;;;;;;;;;;;18.99;77.58;101775.03;5096702;28;1703;-44
2021/08/23 01:12:47;;;;;;;;;;;;;;;18.56;78.85;101776.94;5098364;28;1895;-46
2021/08/23 01:15:12;;;;;;;;;;;;;;;18.64;77.84;101777.16;5098511;28;1779;-45
2021/08/23 01:17:37;;;;;;;;;;;;;;;18.77;77.71;101788.66;5098506;28;1897;-44
2021/08/23 01:20:02;;;;;;;;;;;;;;;18.75;77.79;101795.19;5097990;28;1757;-45
2021/08/23 01:22:27;;;;;;;;;;;;;;;18.71;77.97;101789.16;5098724;28;1005;-45
2021/08/23 01:24:53;;;;;;;;;;;;;;;18.54;77.94;101787.84;5098462;28;918;-44
2021/08/23 01:27:18;;;;;;;;;;;;;;;18.67;78.16;101798.50;5098342;28;872;-42
2021/08/23 01:29:43;;;;;;;;;;;;;;;18.79;77.33;101805.59;5098248;28;1545;-42
2021/08/23 01:32:08;;;;;;;;;;;;;;;18.85;76.70;101804.19;5097976;28;1764;-43
2021/08/23 01:34:33;;;;;;;;;;;;;;;18.80;77.73;101815.41;5098079;28;1008;-46
2021/08/23 01:36:58;;;;;;;;;;;;;;;18.82;76.86;101807.16;5097702;28;1889;-46
2021/08/23 01:39:23;;;;;;;;;;;;;;;18.90;76.51;101819.03;5098306;28;937;-43
2021/08/23 01:41:48;;;;;;;;;;;;;;;18.76;77.02;101813.94;5098210;28;1773;-43
2021/08/23 01:44:13;;;;;;;;;;;;;;;18.70;77.85;101818.00;5098054;28;886;-42
2021/08/23 01:46:38;;;;;;;;;;;;;;;18.66;77.66;101821.09;5097895;28;1360;-42
2021/08/23 01:49:03;;;;;;;;;;;;;;;18.51;78.33;101819.63;5098129;28;981;-43
2021/08/23 01:51:28;;;;;;;;;;;;;;;18.70;77.07;101822.56;5097909;28;1761;-41
2021/08/23 01:53:53;;;;;;;;;;;;;;;18.75;76.82;101823.03;5097724;28;1704;-46
2021/08/23 01:56:19;;;;;;;;;;;;;;;18.80;76.80;101815.41;5097531;28;1959;-42
2021/08/23 01:58:44;;;;;;;;;;;;;;;18.77;76.87;101826.47;5097936;28;850;-44
2021/08/23 02:01:09;;;;;;;;;;;;;;;18.72;76.43;101829.56;5097645;28;1870;-42
2021/08/23 02:03:34;;;;;;;;;;;;;;;18.80;76.68;101828.06;5098186;28;812;-45
2021/08/23 02:05:59;;;;;;;;;;;;;;;18.70;76.69;101820.72;5097735;28;935;-46
2021/08/23 02:08:24;;;;;;;;;;;;;;;18.60;76.59;101830.59;5097770;28;1053;-43
2021/08/23 02:10:49;;;;;;;;;;;;;;;18.57;77.40;101829.94;5097675;28;1691;-42
2021/08/23 02:13:14;;;;;;;;;;;;;;;18.65;76.82;101838.28;5096920;28;1540;-42
2021/08/23 02:15:39;;;;;;;;;;;;;;;18.70;76.42;101838.75;5097215;28;1955;-44
2021/08/23 02:18:04;;;;;;;;;;;;;;;18.60;77.38;101837.81;5096654;28;1706;-43
2021/08/23 02:20:29;;;;;;;;;;;;;;;18.49;77.74;101844.06;5096874;28;1697;-47
2021/08/23 02:22:54;;;;;;;;;;;;;;;18.55;77.29;101835.47;5096341;28;1568;-43
2021/08/23 02:25:22;;;;;;;;;;;;;;;18.61;76.39;101847.63;5096684;28;1771;-43
2021/08/23 02:27:47;;;;;;;;;;;;;;;18.66;76.43;101850.78;5096492;28;1622;-44
2021/08/23 02:30:12;;;;;;;;;;;;;;;18.46;76.88;101847.00;5096685;28;1726;-46
2021/08/23 02:32:38;;;;;;;;;;;;;;;18.45;76.98;101857.97;5096194;28;1525;-44
2021/08/23 02:35:03;;;;;;;;;;;;;;;18.56;76.60;101857.91;5096734;28;1702;-47
2021/08/23 02:37:28;;;;;;;;;;;;;;;18.61;76.71;101866.53;5096255;28;1961;-43
2021/08/23 02:39:53;;;;;;;;;;;;;;;18.41;76.06;101867.28;5096590;28;1561;-45
2021/08/23 02:42:18;;;;;;;;;;;;;;;18.31;76.49;101869.84;5097359;28;814;-44
2021/08/23 02:44:43;;;;;;;;;;;;;;;18.39;77.03;101870.97;5096704;28;996;-43
2021/08/23 02:47:08;;;;;;;;;;;;;;;18.22;76.43;101878.72;5096101;28;1910;-43
2021/08/23 02:49:33;;;;;;;;;;;;;;;18.45;76.48;101874.16;5096248;28;1635;-43
2021/08/23 02:51:58;;;;;;;;;;;;;;;18.46;75.96;101882.09;5096500;28;1721;-42
2021/08/23 02:54:25;;;;;;;;;;;;;;;18.50;76.04;101875.47;5096439;28;1559;-44
2021/08/23 02:56:50;;;;;;;;;;;;;;;18.47;75.86;101886.50;5096831;28;1909;-43
2021/08/23 02:59:15;;;;;;;;;;;;;;;18.45;75.55;101880.38;5096755;28;1829;-43
2021/08/23 03:01:40;;;;;;;;;;;;;;;18.14;76.61;101890.09;5096575;28;957;-43
2021/08/23 03:04:05;;;;;;;;;;;;;;;18.31;76.36;101894.13;5096393;28;847;-45
2021/08/23 03:06:30;;;;;;;;;;;;;;;18.42;76.30;101894.16;5096039;28;854;-43
2021/08/23 03:08:55;;;;;;;;;;;;;;;18.50;76.26;101893.50;5096092;28;1048;-45
2021/08/23 03:11:20;;;;;;;;;;;;;;;18.58;75.60;101902.72;5095550;28;1489;-43
2021/08/23 03:13:45;;;;;;;;;;;;;;;18.26;76.01;101905.31;5095854;28;1675;-42
2021/08/23 03:16:11;;;;;;;;;;;;;;;18.11;76.73;101911.06;5095539;28;1958;-43
2021/08/23 03:18:36;;;;;;;;;;;;;;;18.14;76.56;101914.38;5096001;28;1569;-41
2021/08/23 03:21:01;;;;;;;;;;;;;;;18.27;76.12;101911.59;5096094;28;902;-40
2021/08/23 03:23:26;;;;;;;;;;;;;;;18.02;76.73;101916.22;5095825;28;920;-43
2021/08/23 03:25:51;;;;;;;;;;;;;;;18.11;76.24;101917.31;5096318;28;928;-41
2021/08/23 03:28:16;;;;;;;;;;;;;;;18.08;76.10;101919.44;5096023;28;855;-42
2021/08/23 03:30:41;;;;;;;;;;;;;;;18.03;75.96;101925.19;5095382;28;1636;-43
2021/08/23 03:33:06;;;;;;;;;;;;;;;18.10;75.76;101925.53;5094252;28;1636;-44
2021/08/23 03:35:32;;;;;;;;;;;;;;;18.22;75.41;101925.44;5096116;28;1917;-42
2021/08/23 03:37:59;;;;;;;;;;;;;;;18.28;74.93;101935.72;5095539;28;1661;-41
2021/08/23 03:40:24;;;;;;;;;;;;;;;18.21;75.64;101936.34;5095965;28;887;-43
2021/08/23 03:42:49;;;;;;;;;;;;;;;18.26;75.34;101932.31;5095629;28;1590;-43
2021/08/23 03:45:14;;;;;;;;;;;;;;;18.18;75.64;101925.78;5095505;28;914;-44
2021/08/23 03:47:39;;;;;;;;;;;;;;;18.20;75.66;101938.19;5095513;28;984;-41
2021/08/23 03:50:04;;;;;;;;;;;;;;;18.19;75.24;101936.47;5095413;28;1783;-41
2021/08/23 03:52:29;;;;;;;;;;;;;;;18.13;75.45;101934.25;5095244;28;981;-41
2021/08/23 03:54:54;;;;;;;;;;;;;;;18.26;75.01;101935.00;5095064;28;1311;-49
2021/08/23 03:57:19;;;;;;;;;;;;;;;18.20;75.12;101942.72;5095252;28;1888;-46
2021/08/23 03:59:44;;;;;;;;;;;;;;;18.10;75.09;101941.72;5095517;28;1012;-46
2021/08/23 04:02:09;;;;;;;;;;;;;;;17.93;75.52;101943.03;5095304;28;1001;-43
2021/08/23 04:04:34;;;;;;;;;;;;;;;17.91;75.31;101939.63;5095409;28;1017;-47
2021/08/23 04:06:59;;;;;;;;;;;;;;;18.04;75.67;101945.78;5095705;28;837;-50
2021/08/23 04:09:24;;;;;;;;;;;;;;;18.19;75.27;101944.56;5095311;28;1857;-50
2021/08/23 04:11:49;;;;;;;;;;;;;;;18.25;74.97;101957.56;5095651;28;1639;-47
2021/08/23 04:14:15;;;;;;;;;;;;;;;18.35;74.79;101955.84;5095356;28;923;-44
2021/08/23 04:16:40;;;;;;;;;;;;;;;18.30;74.54;101962.59;5077185;28;1901;-45
2021/08/23 04:19:05;;;;;;;;;;;;;;;18.18;75.67;101959.03;5095305;28;945;-45
2021/08/23 04:21:30;;;;;;;;;;;;;;;18.20;75.64;101962.47;5095521;28;1780;-44
2021/08/23 04:23:55;;;;;;;;;;;;;;;18.07;75.73;101961.72;5095129;28;1921;-46
2021/08/23 04:26:20;;;;;;;;;;;;;;;18.18;75.49;101975.22;5095074;28;1025;-42
2021/08/23 04:28:45;;;;;;;;;;;;;;;18.28;74.61;101973.50;5095163;28;1056;-48
2021/08/23 04:31:10;;;;;;;;;;;;;;;18.30;74.94;101976.94;5095385;28;1732;-47
2021/08/23 04:33:35;;;;;;;;;;;;;;;18.27;75.23;101977.19;5094973;28;1017;-46
2021/08/23 04:36:00;;;;;;;;;;;;;;;18.31;74.75;101985.88;5094822;28;1897;-48
2021/08/23 04:38:25;;;;;;;;;;;;;;;18.29;75.23;101985.16;5095122;28;1729;-45
2021/08/23 04:40:51;;;;;;;;;;;;;;;18.41;74.88;101989.59;5094679;28;847;-49
2021/08/23 04:43:16;;;;;;;;;;;;;;;18.44;74.69;101986.66;5095251;28;815;-50
2021/08/23 04:45:41;;;;;;;;;;;;;;;18.30;75.34;101990.44;5097592;28;846;-49
2021/08/23 04:48:06;;;;;;;;;;;;;;;18.35;74.89;101992.78;5099046;28;1772;-48
2021/08/23 04:50:31;;;;;;;;;;;;;;;18.38;75.40;101998.78;5099331;28;799;-43
2021/08/23 04:52:56;;;;;;;;;;;;;;;18.24;75.04;101999.03;5098653;28;997;-42
2021/08/23 04:55:21;;;;;;;;;;;;;;;18.13;75.84;102011.63;5098676;28;1615;-46
2021/08/23 04:57:46;;;;;;;;;;;;;;;18.15;74.93;102007.84;5080208;28;1898;-43
2021/08/23 05:00:11;;;;;;;;;;;;;;;18.27;74.65;102012.25;5099010;28;1717;-46
2021/08/23 05:02:36;;;;;;;;;;;;;;;18.39;74.70;102016.69;5098698;28;1024;-48
2021/08/23 05:05:01;;;;;;;;;;;;;;;18.39;74.60;102019.41;5098828;28;1021;-44
2021/08/23 05:07:27;;;;;;;;;;;;;;;18.50;75.06;102021.25;5098386;28;1858;-47
2021/08/23 05:09:52;;;;;;;;;;;;;;;18.48;74.78;102031.28;5080171;28;2674;-48
2021/08/23 05:12:17;;;;;;;;;;;;;;;18.55;75.22;102028.97;5098259;28;1708;-47
2021/08/23 05:14:42;;;;;;;;;;;;;;;18.57;74.68;102037.81;5098176;28;1641;-45
2021/08/23 05:17:07;;;;;;;;;;;;;;;18.57;76.00;102037.81;5098086;28;1893;-46
2021/08/23 05:19:32;;;;;;;;;;;;;;;18.62;75.67;102041.91;5098005;28;1737;-47
2021/08/23 05:21:57;;;;;;;;;;;;;;;18.44;75.71;102035.25;5097850;28;1712;-45
2021/08/23 05:24:22;;;;;;;;;;;;;;;18.39;75.77;102042.84;5097782;28;1724;-47
2021/08/23 05:26:47;;;;;;;;;;;;;;;18.44;76.11;102050.56;5097600;28;1606;-48
2021/08/23 05:29:12;;;;;;;;;;;;;;;18.56;75.26;102049.59;5097670;28;1602;-44
2021/08/23 05:31:37;;;;;;;;;;;;;;;18.60;75.00;102056.50;5097837;28;1497;-43
2021/08/23 05:34:02;;;;;;;;;;;;;;;18.63;74.94;102056.28;5097738;28;1513;-42
2021/08/23 05:36:27;;;;;;;;;;;;;;;18.68;74.69;102054.03;5097366;28;1893;-42
2021/08/23 05:38:52;;;;;;;;;;;;;;;18.63;74.92;102061.69;5097342;28;1676;-42
2021/08/23 05:41:18;;;;;;;;;;;;;;;18.55;75.32;102058.69;5098002;28;1790;-43
2021/08/23 05:43:43;;;;;;;;;;;;;;;18.51;74.39;102059.91;5097760;28;1979;-41
2021/08/23 05:46:09;;;;;;;;;;;;;;;18.50;74.69;102072.53;5097061;28;1645;-42
2021/08/23 05:48:34;;;;;;;;;;;;;;;18.54;74.97;102070.44;5097351;28;1652;-43
2021/08/23 05:50:59;;;;;;;;;;;;;;;18.63;74.05;102073.31;5098072;28;1617;-45
2021/08/23 05:53:24;;;;;;;;;;;;;;;18.59;74.37;102071.84;5097874;28;1802;-45
2021/08/23 05:55:49;;;;;;;;;;;;;;;18.47;75.05;102077.31;5097009;28;1905;-43
2021/08/23 05:58:15;;;;;;;;;;;;;;;18.48;75.34;102079.03;5097162;28;1009;-42
2021/08/23 06:00:40;;;;;;;;;;;;;;;18.47;74.89;102078.16;5096947;28;1806;-46
2021/08/23 06:03:05;;;;;;;;;;;;;;;18.57;74.50;102078.31;5097065;28;1715;-41
2021/08/23 06:05:30;;;;;;;;;;;;;;;18.53;74.38;102087.63;5097626;28;881;-47
2021/08/23 06:07:55;;;;;;;;;;;;;;;18.64;74.86;102085.81;5097565;28;1746;-46
2021/08/23 06:10:20;;;;;;;;;;;;;;;18.70;74.18;102079.94;5097328;28;922;-46
2021/08/23 06:12:45;;;;;;;;;;;;;;;18.70;74.47;102085.34;5097014;28;1771;-47
2021/08/23 06:15:10;;;;;;;;;;;;;;;18.62;74.37;102089.66;5098003;28;1600;-47
2021/08/23 06:17:35;;;;;;;;;;;;;;;18.62;74.34;102089.66;5097575;28;1878;-46
2021/08/23 06:20:00;;;;;;;;;;;;;;;18.59;74.58;102081.78;5097266;28;933;-49
2021/08/23 06:22:25;;;;;;;;;;;;;;;18.62;73.75;102086.94;5097212;28;1745;-45
2021/08/23 06:24:51;;;;;;;;;;;;;;;18.56;74.15;102098.19;5096987;28;1534;-44
2021/08/23 06:27:16;;;;;;;;;;;;;;;18.55;73.71;102096.47;5097130;28;1030;-44
2021/08/23 06:29:41;;;;;;;;;;;;;;;18.58;74.43;102097.09;5097078;28;858;-45
2021/08/23 06:32:06;;;;;;;;;;;;;;;18.62;73.95;102097.75;5096374;28;1026;-47
2021/08/23 06:34:32;;;;;;;;;;;;;;;18.67;73.32;102090.13;5096693;28;1785;-46
2021/08/23 06:36:57;;;;;;;;;;;;;;;18.51;74.14;102100.38;5096314;28;1954;-47
2021/08/23 06:39:22;;;;;;;;;;;;;;;18.57;73.86;102106.19;5096617;28;1025;-44
2021/08/23 06:41:47;;;;;;;;;;;;;;;18.58;73.50;102107.03;5096711;28;960;-44
2021/08/23 06:44:13;;;;;;;;;;;;;;;18.50;74.08;102104.06;5096797;28;830;-45
2021/08/23 06:46:38;;;;;;;;;;;;;;;18.59;73.55;102106.94;5096624;28;803;-42
2021/08/23 06:49:03;;;;;;;;;;;;;;;18.54;73.42;102106.41;5096277;28;1752;-47
2021/08/23 06:51:28;;;;;;;;;;;;;;;18.46;73.54;102102.56;5096065;28;1764;-44
2021/08/23 06:53:53;;;;;;;;;;;;;;;18.54;74.52;102105.56;5077681;28;1293;-45
2021/08/23 06:56:18;;;;;;;;;;;;;;;18.65;73.30;102113.69;5096557;28;1906;-43
2021/08/23 06:58:43;;;;;;;;;;;;;;;18.62;72.75;102108.56;5096411;28;942;-42
2021/08/23 07:01:08;;;;;;;;;;;;;;;18.59;73.20;102116.88;5096036;28;1057;-44
2021/08/23 07:03:33;;;;;;;;;;;;;;;18.65;72.54;102109.16;5096063;28;1754;-43
2021/08/23 07:05:59;;;;;;;;;;;;;;;18.75;73.11;102112.00;5096453;28;959;-45
2021/08/23 07:08:24;;;;;;;;;;;;;;;18.80;73.34;102120.59;5096191;28;888;-45
2021/08/23 07:10:51;;;;;;;;;;;;;;;18.87;72.86;102119.13;5096209;28;854;-44
2021/08/23 07:13:16;;;;;;;;;;;;;;;18.77;72.44;102125.38;5095896;28;1732;-45
2021/08/23 07:15:41;;;;;;;;;;;;;;;18.71;72.45;102129.41;5095985;28;1894;-44
2021/08/23 07:18:06;;;;;;;;;;;;;;;18.70;73.24;102127.69;5096601;28;1028;-47
2021/08/23 07:20:31;;;;;;;;;;;;;;;18.68;72.41;102135.91;5096424;28;921;-47
2021/08/23 07:22:56;;;;;;;;;;;;;;;18.73;72.21;102139.13;5096282;28;947;-49
2021/08/23 07:25:21;;;;;;;;;;;;;;;18.74;72.18;102137.28;5095829;28;1880;-42
2021/08/23 07:27:46;;;;;;;;;;;;;;;18.69;72.16;102136.78;5096251;28;961;-43
2021/08/23 07:30:11;;;;;;;;;;;;;;;18.60;72.57;102137.50;5095634;28;834;-44
2021/08/23 07:32:36;;;;;;;;;;;;;;;18.70;71.72;102149.31;5095922;28;830;-47
2021/08/23 07:35:02;;;;;;;;;;;;;;;18.76;72.31;102153.38;5096288;28;826;-44
2021/08/23 07:37:27;;;;;;;;;;;;;;;18.85;71.96;102150.78;5095931;28;1902;-50
2021/08/23 07:39:52;;;;;;;;;;;;;;;18.79;72.44;102154.00;5095235;28;1785;-47
2021/08/23 07:42:18;;;;;;;;;;;;;;;18.82;72.35;102159.13;5095829;28;1068;-44
2021/08/23 07:44:43;;;;;;;;;;;;;;;18.82;71.96;102158.25;5095963;28;842;-44
2021/08/23 07:47:08;;;;;;;;;;;;;;;18.85;71.40;102158.88;5093715;28;1715;-48
2021/08/23 07:49:33;;;;;;;;;;;;;;;18.99;70.93;102150.53;5095750;28;823;-43
2021/08/23 07:51:58;;;;;;;;;;;;;;;19.07;71.20;102160.75;5077003;28;2088;-44
2021/08/23 07:54:23;;;;;;;;;;;;;;;19.10;71.52;102162.34;5095723;28;1132;-43
2021/08/23 07:56:48;;;;;;;;;;;;;;;19.02;71.41;102150.31;5095773;28;1914;-44
2021/08/23 07:59:13;;;;;;;;;;;;;;;18.96;70.61;102164.31;5095746;28;1052;-43
2021/08/23 08:01:38;;;;;;;;;;;;;;;18.90;70.39;102154.00;5095254;28;952;-49
2021/08/23 08:04:03;;;;;;;;;;;;;;;18.91;70.68;102154.84;5095627;28;1427;-45
2021/08/23 08:06:28;;;;;;;;;;;;;;;18.94;70.37;102158.19;5095081;28;1982;-45
2021/08/23 08:08:54;;;;;;;;;;;;;;;19.05;70.15;102155.47;5095083;28;997;-47
2021/08/23 08:11:20;;;;;;;;;;;;;;;18.99;69.09;102160.50;5095070;28;811;-45
2021/08/23 08:13:45;;;;;;;;;;;;;;;18.79;69.17;102158.53;5095385;28;850;-43
2021/08/23 08:16:10;;;;;;;;;;;;;;;18.93;69.14;102161.84;5095719;28;1894;-44
2021/08/23 08:18:35;;;;;;;;;;;;;;;18.94;69.87;102166.28;5094775;28;1021;-45
2021/08/23 08:21:00;;;;;;;;;;;;;;;18.84;68.67;102162.56;5094261;28;1804;-47
2021/08/23 08:23:25;;;;;;;;;;;;;;;18.97;68.75;102157.94;5095575;28;1751;-41
2021/08/23 08:25:50;;;;;;;;;;;;;;;19.08;69.51;102159.78;5094933;28;883;-45
2021/08/23 08:28:15;;;;;;;;;;;;;;;19.00;69.14;102168.47;5094572;28;772;-46
2021/08/23 08:30:40;;;;;;;;;;;;;;;18.99;69.33;102176.69;5095453;28;878;-43
2021/08/23 08:33:05;;;;;;;;;;;;;;;19.13;69.05;102171.09;5094741;28;1712;-42
2021/08/23 08:35:31;;;;;;;;;;;;;;;19.30;68.45;102169.72;5095005;28;1045;-44
2021/08/23 08:37:56;;;;;;;;;;;;;;;19.22;68.55;102175.72;5095075;28;1898;-42
2021/08/23 08:40:21;;;;;;;;;;;;;;;19.25;68.89;102175.50;5095200;28;934;-41
2021/08/23 08:42:46;;;;;;;;;;;;;;;19.27;68.39;102180.78;5095180;28;936;-48
2021/08/23 08:45:11;;;;;;;;;;;;;;;19.10;67.46;102186.69;5094744;28;989;-44
2021/08/23 08:47:36;;;;;;;;;;;;;;;19.07;67.76;102180.53;5095229;28;1753;-44
2021/08/23 08:50:01;;;;;;;;;;;;;;;19.18;67.70;102176.94;5095248;28;949;-43
2021/08/23 08:52:26;;;;;;;;;;;;;;;19.30;66.96;102183.25;5095049;28;923;-42
2021/08/23 08:54:51;;;;;;;;;;;;;;;19.37;66.76;102188.00;5095537;28;1985;-42
2021/08/23 08:57:16;;;;;;;;;;;;;;;19.36;67.15;102188.13;5095196;28;1910;-48
2021/08/23 08:59:41;;;;;;;;;;;;;;;19.39;67.15;102185.19;5095436;28;831;-42
2021/08/23 09:02:06;;;;;;;;;;;;;;;19.43;67.56;102183.97;5094845;28;1792;-47
2021/08/23 09:04:32;;;;;;;;;;;;;;;19.51;67.68;102195.06;5094977;28;1886;-46
2021/08/23 09:06:58;;;;;;;;;;;;;;;19.57;67.47;102189.13;5095050;28;1008;-46
2021/08/23 09:09:23;;;;;;;;;;;;;;;19.48;67.85;102200.69;5095169;28;787;-46
2021/08/23 09:11:48;;;;;;;;;;;;;;;19.50;68.02;102203.28;5095406;28;822;-47
2021/08/23 09:14:13;;;;;;;;;;;;;;;19.49;68.50;102205.09;5094761;28;809;-45
2021/08/23 09:16:41;;;;;;;;;;;;;;;19.46;67.61;102202.66;5094615;28;1973;-45
2021/08/23 09:19:06;;;;;;;;;;;;;;;19.37;67.43;102203.38;5094802;28;997;-44
2021/08/23 09:21:31;;;;;;;;;;;;;;;19.39;67.72;102206.81;5094692;28;1773;-46
2021/08/23 09:23:59;;;;;;;;;;;;;;;19.47;67.86;102209.78;5094568;28;910;-41
2021/08/23 09:26:24;;;;;;;;;;;;;;;19.50;67.63;102216.81;5094533;28;923;-46
2021/08/23 09:28:49;;;;;;;;;;;;;;;19.44;67.91;102210.00;5095144;28;866;-46
2021/08/23 09:31:14;;;;;;;;;;;;;;;19.48;67.52;102222.31;5094958;28;1791;-44
2021/08/23 09:33:39;;;;;;;;;;;;;;;19.53;67.99;102214.69;5098382;28;929;-42
2021/08/23 09:36:04;;;;;;;;;;;;;;;19.59;67.48;102214.22;5097314;28;1961;-44
2021/08/23 09:38:30;;;;;;;;;;;;;;;19.54;67.52;102212.84;5097179;28;1656;-43
2021/08/23 09:40:55;;;;;;;;;;;;;;;19.52;67.71;102220.25;5097401;28;1682;-42
2021/08/23 09:43:20;;;;;;;;;;;;;;;19.33;67.43;102219.00;5076690;28;1911;-47
2021/08/23 09:45:47;;;;;;;;;;;;;;;19.14;67.76;102212.47;5097760;28;1736;-44
2021/08/23 09:48:12;;;;;;;;;;;;;;;19.35;68.38;102225.13;5097846;28;2108;-44
2021/08/23 09:50:37;;;;;;;;;;;;;;;19.31;67.92;102220.09;5097736;28;1849;-43
2021/08/23 09:53:02;;;;;;;;;;;;;;;19.43;67.67;102213.69;5096043;28;1891;-43
2021/08/23 09:55:27;;;;;;;;;;;;;;;19.35;66.81;102210.75;5097440;28;1710;-43
2021/08/23 09:57:52;;;;;;;;;;;;;;;19.42;67.73;102214.69;5097182;28;1905;-48
2021/08/23 10:00:17;;;;;;;;;;;;;;;19.52;67.77;102213.00;5097794;28;1816;-43
2021/08/23 10:02:43;;;;;;;;;;;;;;;19.52;68.28;102207.59;5097452;28;864;-46
2021/08/23 10:05:08;;;;;;;;;;;;;;;19.40;66.98;102213.94;5097629;28;1876;-48
2021/08/23 10:07:33;;;;;;;;;;;;;;;19.31;67.57;102225.50;5097648;28;1794;-47
2021/08/23 10:09:58;;;;;;;;;;;;;;;19.32;67.19;102216.41;5097458;28;1479;-47
2021/08/23 10:12:23;;;;;;;;;;;;;;;19.18;67.28;102219.34;5097367;28;1823;-42
2021/08/23 10:14:48;;;;;;;;;;;;;;;19.24;67.74;102213.44;5097376;28;882;-44
2021/08/23 10:17:14;;;;;;;;;;;;;;;19.40;67.57;102222.06;5097184;28;1977;-41
2021/08/23 10:19:39;;;;;;;;;;;;;;;19.44;67.50;102218.13;5097326;28;837;-46
2021/08/23 10:22:04;;;;;;;;;;;;;;;19.52;67.52;102221.13;5097657;28;997;-44
2021/08/23 10:24:29;;;;;;;;;;;;;;;19.58;67.72;102222.44;5097005;28;1764;-43
2021/08/23 10:26:54;;;;;;;;;;;;;;;19.65;68.26;102226.38;5097389;28;1785;-43
2021/08/23 10:29:20;;;;;;;;;;;;;;;19.61;67.73;102228.47;5097458;28;922;-46
2021/08/23 10:31:45;;;;;;;;;;;;;;;19.68;67.67;102232.41;5097381;28;965;-44
2021/08/23 10:34:10;;;;;;;;;;;;;;;19.69;67.72;102225.16;5097114;28;901;-46
2021/08/23 10:36:35;;;;;;;;;;;;;;;19.67;67.43;102222.56;5096812;28;1902;-47
2021/08/23 10:39:00;;;;;;;;;;;;;;;19.52;67.24;102226.53;5096831;28;910;-46
2021/08/23 10:41:25;;;;;;;;;;;;;;;19.45;67.67;102224.41;5097058;28;1002;-44
2021/08/23 10:43:50;;;;;;;;;;;;;;;19.55;67.02;102226.25;5096398;28;1847;-45
2021/08/23 10:46:15;;;;;;;;;;;;;;;19.49;66.53;102217.75;5097078;28;858;-42
2021/08/23 10:48:40;;;;;;;;;;;;;;;19.49;67.60;102220.47;5097109;28;1436;-42
2021/08/23 10:51:05;;;;;;;;;;;;;;;19.52;67.29;102223.81;5095678;28;1962;-46
2021/08/23 10:53:31;;;;;;;;;;;;;;;19.58;68.25;102220.59;5096657;28;1784;-49
2021/08/23 10:55:56;;;;;;;;;;;;;;;19.70;67.92;102218.75;5087966;28;1982;-47
2021/08/23 10:58:21;;;;;;;;;;;;;;;19.70;67.82;102224.19;5096085;28;1583;-46
2021/08/23 11:00:46;;;;;;;;;;;;;;;19.75;68.00;102224.63;5092107;28;1628;-45
2021/08/23 11:03:11;;;;;;;;;;;;;;;19.77;67.69;102219.97;5096518;28;2113;-44
2021/08/23 11:05:37;;;;;;;;;;;;;;;19.84;67.29;102223.03;5096712;28;1853;-44
2021/08/23 11:08:09;;;;;;;;;;;;;;;19.80;67.73;102226.97;5096120;28;1841;-46
2021/08/23 11:10:36;;;;;;;;;;;;;;;19.68;67.45;102221.59;5096727;28;1058;-45
2021/08/23 11:13:01;;;;;;;;;;;;;;;19.76;67.52;102215.53;5095181;28;1693;-41
2021/08/23 11:15:27;;;;;;;;;;;;;;;19.86;68.18;102221.06;5095805;28;1789;-43
2021/08/23 11:17:52;;;;;;;;;;;;;;;19.89;68.10;102227.06;5096264;28;1890;-43
2021/08/23 11:20:17;;;;;;;;;;;;;;;19.86;68.12;102215.66;5095869;28;2086;-41
2021/08/23 11:22:42;;;;;;;;;;;;;;;19.84;67.59;102226.59;5096246;28;799;-43
2021/08/23 11:25:07;;;;;;;;;;;;;;;19.81;67.44;102220.56;5095808;28;1527;-43
2021/08/23 11:27:32;;;;;;;;;;;;;;;19.89;67.29;102220.78;5095734;28;1860;-46
2021/08/23 11:29:57;;;;;;;;;;;;;;;19.96;67.51;102216.59;5095752;28;1056;-47
2021/08/23 11:32:22;;;;;;;;;;;;;;;19.96;67.52;102211.19;5095756;28;1713;-45
2021/08/23 11:34:47;;;;;;;;;;;;;;;19.95;67.89;102214.88;5096309;28;945;-42
2021/08/23 11:37:13;;;;;;;;;;;;;;;19.98;68.36;102207.38;5095763;28;1957;-46
2021/08/23 11:39:38;;;;;;;;;;;;;;;19.97;67.61;102216.47;5077542;28;819;-42
2021/08/23 11:42:03;;;;;;;;;;;;;;;19.99;67.84;102219.91;5095656;28;964;-42
2021/08/23 11:44:28;;;;;;;;;;;;;;;20.00;66.88;102213.53;5095896;28;803;-42
2021/08/23 11:46:53;;;;;;;;;;;;;;;19.99;68.63;102219.06;5095366;28;1167;-43
2021/08/23 11:49:18;;;;;;;;;;;;;;;20.10;68.28;102222.59;5095247;28;1811;-46
2021/08/23 11:51:43;;;;;;;;;;;;;;;20.13;67.37;102229.59;5094301;28;1759;-44
2021/08/23 11:54:08;;;;;;;;;;;;;;;20.13;66.85;102228.72;5094783;28;1755;-40
2021/08/23 11:56:33;;;;;;;;;;;;;;;20.04;66.85;102225.81;5076850;28;1981;-41
2021/08/23 11:58:59;;;;;;;;;;;;;;;19.96;67.40;102228.28;5095621;28;1944;-46
2021/08/23 12:01:24;;;;;;;;;;;;;;;19.78;67.43;102229.81;5095099;28;1940;-42
2021/08/23 12:03:49;;;;;;;;;;;;;;;19.99;66.83;102221.78;5094146;28;1855;-47
2021/08/23 12:06:16;;;;;;;;;;;;;;;20.20;67.29;102222.69;5094089;28;1546;-41
2021/08/23 12:08:41;;;;;;;;;;;;;;;20.20;67.84;102225.41;5094334;28;1566;-42
2021/08/23 12:11:09;;;;;;;;;;;;;;;20.09;67.91;102225.41;5094915;28;1622;-41
2021/08/23 12:13:34;;;;;;;;;;;;;;;20.12;68.81;102227.88;5095211;28;1583;-45
2021/08/23 12:15:59;;;;;;;;;;;;;;;20.15;69.28;102230.31;5094410;28;1932;-43
2021/08/23 12:18:24;;;;;;;;;;;;;;;20.20;68.77;102229.94;5094363;28;1923;-45
2021/08/23 12:20:49;;;;;;;;;;;;;;;20.16;68.58;102223.06;5094287;28;1755;-43
2021/08/23 12:23:14;;;;;;;;;;;;;;;20.20;68.82;102220.00;5094893;28;1900;-46
2021/08/23 12:25:39;;;;;;;;;;;;;;;20.22;68.60;102215.31;5095195;28;938;-46
2021/08/23 12:28:04;;;;;;;;;;;;;;;20.24;67.98;102224.16;5094744;28;851;-44
2021/08/23 12:30:29;;;;;;;;;;;;;;;20.24;68.91;102223.31;5095455;28;1656;-46
2021/08/23 12:32:54;;;;;;;;;;;;;;;20.25;69.40;102225.00;5094987;28;1864;-44
2021/08/23 12:35:19;;;;;;;;;;;;;;;20.30;68.77;102223.63;5095339;28;917;-42
2021/08/23 12:37:44;;;;;;;;;;;;;;;20.29;69.28;102224.59;5094979;28;1965;-48